Time;durP1;ratioP1;P1;durP2;ratioP2;P2;SDS_P1;SDS_P2;PMS_P1;PMS_P2;Temp;Humidity;BMP_temperature;BMP_pressure;BME280_temperature;BME280_humidity;BME280_pressure;Samples;Min_cycle;Max_cycle;Signal;HPM_P1;HPM_P2
2023/05/28 00:00:07;;;;;;;;;8.00;7.33;;;;;22.23;51.80;101488.34;5034249;28;64028;-77
2023/05/28 00:02:33;;;;;;;;;5.00;5.00;;;;;22.19;52.45;101489.34;5035597;28;47406;-77
2023/05/28 00:04:58;;;;;;;;;5.33;5.00;;;;;22.16;52.66;101491.25;5028578;28;45235;-76
2023/05/28 00:07:24;;;;;;;;;6.00;5.00;;;;;22.12;52.42;101487.75;5035742;28;45209;-78
2023/05/28 00:09:50;;;;;;;;;8.33;5.00;;;;;22.08;52.63;101487.84;5035124;28;45447;-79
2023/05/28 00:12:15;;;;;;;;;8.00;5.33;;;;;22.04;52.61;101481.66;5035913;28;47204;-79
2023/05/28 00:14:41;;;;;;;;;7.33;5.00;;;;;22.02;53.18;101479.94;5038986;28;45593;-79
2023/05/28 00:17:06;;;;;;;;;6.00;6.00;;;;;22.00;53.35;101477.28;5021275;28;46408;-79
2023/05/28 00:19:32;;;;;;;;;7.00;7.00;;;;;21.95;53.19;101477.41;5038771;28;45280;-79
2023/05/28 00:21:57;;;;;;;;;5.33;4.67;;;;;21.93;53.56;101470.28;5035930;28;47383;-79
2023/05/28 00:24:22;;;;;;;;;6.67;5.33;;;;;21.90;53.83;101468.56;5029899;28;66558;-79
2023/05/28 00:26:48;;;;;;;;;7.67;5.33;;;;;21.87;53.58;101471.31;5038209;28;58624;-78
2023/05/28 00:29:13;;;;;;;;;9.33;6.00;;;;;21.86;53.89;101471.38;5037664;28;60065;-81
2023/05/28 00:31:39;;;;;;;;;8.00;5.00;;;;;21.84;53.97;101481.25;5032145;28;45752;-82
2023/05/28 00:34:04;;;;;;;;;5.67;5.00;;;;;21.78;54.28;101476.03;5038403;28;45446;-80
2023/05/28 00:36:30;;;;;;;;;6.00;6.00;;;;;21.76;54.52;101462.66;5036191;28;47347;-81
2023/05/28 00:38:55;;;;;;;;;12.00;6.67;;;;;21.72;54.29;101474.41;5038204;28;45525;-81
2023/05/28 00:41:22;;;;;;;;;8.67;6.00;;;;;21.68;54.95;101479.00;5033242;28;66168;-78
2023/05/28 00:43:48;;;;;;;;;7.33;6.00;;;;;21.65;54.91;101473.69;5020784;28;45261;-79
2023/05/28 00:46:17;;;;;;;;;7.00;6.00;;;;;21.62;55.19;101475.53;5035438;28;45520;-83
2023/05/28 00:48:43;;;;;;;;;7.33;6.33;;;;;21.59;55.33;101481.00;5037924;28;45636;-78
2023/05/28 00:51:10;;;;;;;;;9.00;5.67;;;;;21.54;55.56;101473.06;5017206;28;48061;-81
2023/05/28 00:53:35;;;;;;;;;9.67;6.67;;;;;21.53;55.86;101479.34;5018105;28;45463;-79
2023/05/28 00:56:01;;;;;;;;;7.33;6.00;;;;;21.50;56.08;101474.03;5036790;28;45300;-77
2023/05/28 00:58:27;;;;;;;;;6.00;5.67;;;;;21.44;56.04;101471.50;5020773;28;45660;-78
2023/05/28 01:00:52;;;;;;;;;8.33;6.00;;;;;21.40;56.42;101469.81;5020398;28;47246;-79
2023/05/28 01:03:17;;;;;;;;;6.33;5.00;;;;;21.34;56.80;101468.16;5037840;28;65747;-79
2023/05/28 01:05:43;;;;;;;;;7.67;5.33;;;;;21.32;56.80;101470.00;5037964;28;45504;-78
2023/05/28 01:08:08;;;;;;;;;7.00;5.67;;;;;21.28;57.58;101462.88;5038423;28;45324;-82
2023/05/28 01:10:35;;;;;;;;;9.67;6.33;;;;;21.25;57.65;101465.63;5019138;28;67931;-78
2023/05/28 01:13:01;;;;;;;;;7.33;5.00;;;;;21.22;57.94;101481.84;5036458;28;45486;-78
2023/05/28 01:15:27;;;;;;;;;10.33;6.00;;;;;21.16;58.28;101479.28;5018411;28;45368;-81
2023/05/28 01:17:57;;;;;;;;;7.67;6.33;;;;;21.12;58.53;101480.28;5037292;28;55613;-82
2023/05/28 01:20:23;;;;;;;;;9.00;7.67;;;;;21.09;58.38;101480.31;5029620;28;46743;-82
2023/05/28 01:22:55;;;;;;;;;6.00;6.00;;;;;21.06;59.05;101481.28;5037275;28;45414;-82
2023/05/28 01:25:21;;;;;;;;;7.33;7.33;;;;;21.01;58.75;101477.81;5037592;28;45269;-79
2023/05/28 01:27:46;;;;;;;;;11.00;7.00;;;;;20.99;59.56;101485.03;5037734;28;45262;-83
2023/05/28 01:30:12;;;;;;;;;8.33;6.00;;;;;20.93;59.54;101479.78;5034873;28;45749;-80
2023/05/28 01:32:41;;;;;;;;;8.00;6.00;;;;;20.91;59.70;101479.81;5037476;28;45416;-78
2023/05/28 01:35:08;;;;;;;;;7.00;7.00;;;;;20.88;59.66;101479.91;5031877;28;45414;-80
2023/05/28 01:37:36;;;;;;;;;11.67;7.00;;;;;20.85;60.63;101479.97;5030756;28;45284;-79
2023/05/28 01:40:02;;;;;;;;;9.00;7.67;;;;;20.83;60.21;101486.28;5032771;28;46462;-78
2023/05/28 01:42:29;;;;;;;;;10.67;8.33;;;;;20.80;61.00;101481.84;5012080;28;45465;-79
2023/05/28 01:44:56;;;;;;;;;15.67;8.00;;;;;20.74;60.90;101484.66;5019778;28;45281;-80
2023/05/28 01:47:21;;;;;;;;;11.00;7.33;;;;;20.72;61.87;101477.53;5001430;28;49611;-80
2023/05/28 01:49:47;;;;;;;;;6.67;6.67;;;;;20.69;61.65;101475.81;5002967;28;67978;-81
2023/05/28 01:52:13;;;;;;;;;9.33;7.00;;;;;20.65;61.99;101475.00;5000643;28;67710;-78
2023/05/28 01:54:40;;;;;;;;;12.67;6.33;;;;;20.63;62.76;101482.19;5037413;28;45482;-80
2023/05/28 01:57:05;;;;;;;;;10.33;8.67;;;;;20.61;62.74;101475.09;5019916;28;45897;-79
2023/05/28 01:59:31;;;;;;;;;11.00;8.00;;;;;20.61;63.28;101475.09;5037321;28;46549;-82
2023/05/28 02:01:56;;;;;;;;;10.33;7.33;;;;;20.56;63.74;101469.84;5037480;28;45483;-80
2023/05/28 02:04:22;;;;;;;;;8.33;8.00;;;;;20.52;64.02;101467.25;5035985;28;65310;-79
2023/05/28 02:06:47;;;;;;;;;10.67;7.33;;;;;20.49;64.48;101478.03;5037694;28;45431;-82
2023/05/28 02:09:13;;;;;;;;;13.67;8.00;;;;;20.43;64.46;101479.00;5030776;28;45752;-80
2023/05/28 02:11:38;;;;;;;;;11.33;7.33;;;;;20.42;64.77;101477.22;5036237;28;45495;-80
2023/05/28 02:14:06;;;;;;;;;9.00;9.00;;;;;20.39;65.77;101478.16;5036533;28;61015;-78
2023/05/28 02:16:32;;;;;;;;;13.00;10.67;;;;;20.40;65.39;101489.81;5036988;28;45300;-80
2023/05/28 02:18:58;;;;;;;;;11.67;10.00;;;;;20.35;66.35;101479.16;5036438;28;66673;-78
2023/05/28 02:21:24;;;;;;;;;14.00;11.67;;;;;20.32;66.47;101476.50;5036843;28;45543;-79
2023/05/28 02:23:50;;;;;;;;;9.33;9.33;;;;;20.31;67.53;101490.84;5037243;28;45462;-81
2023/05/28 02:26:16;;;;;;;;;14.00;11.33;;;;;20.28;67.86;101485.53;5037094;28;45332;-79
2023/05/28 02:28:45;;;;;;;;;12.33;10.67;;;;;20.23;68.37;101490.09;5019046;28;47537;-79
2023/05/28 02:31:11;;;;;;;;;13.33;10.00;;;;;20.21;68.87;101483.88;5036420;28;45210;-78
2023/05/28 02:33:41;;;;;;;;;10.00;10.00;;;;;20.17;69.41;101479.47;5036161;28;45347;-79
2023/05/28 02:36:07;;;;;;;;;11.33;11.33;;;;;20.14;69.54;101485.81;5036329;28;45384;-82
2023/05/28 02:38:33;;;;;;;;;16.00;11.33;;;;;20.10;69.55;101484.06;5035979;28;47290;-81
2023/05/28 02:40:58;;;;;;;;;10.33;9.00;;;;;20.09;69.86;101485.00;5032095;28;45448;-80
2023/05/28 02:43:23;;;;;;;;;10.00;10.00;;;;;20.05;70.13;101480.59;5035436;28;64722;-78
2023/05/28 02:45:49;;;;;;;;;9.67;9.67;;;;;20.05;70.63;101479.72;5034337;28;61042;-79
2023/05/28 02:48:14;;;;;;;;;12.33;12.00;;;;;20.04;71.05;101480.63;5022732;28;47410;-82
2023/05/28 02:50:39;;;;;;;;;18.67;11.00;;;;;20.01;71.68;101478.00;5033835;28;45387;-79
2023/05/28 02:53:05;;;;;;;;;17.33;10.33;;;;;19.96;72.34;101483.44;5034273;28;45344;-81
2023/05/28 02:55:30;;;;;;;;;10.67;9.33;;;;;19.93;72.88;101479.94;5035874;28;61414;-80
2023/05/28 02:57:55;;;;;;;;;12.33;9.00;;;;;19.89;73.08;101473.72;5035839;28;47219;-79
2023/05/28 03:00:21;;;;;;;;;14.33;10.33;;;;;19.87;73.45;101483.59;5034450;28;67097;-79
2023/05/28 03:02:46;;;;;;;;;11.33;10.33;;;;;19.82;74.10;101480.13;5032477;28;45347;-80
2023/05/28 03:05:12;;;;;;;;;13.00;11.00;;;;;19.78;74.53;101484.63;5034374;28;63587;-82
2023/05/28 03:07:37;;;;;;;;;19.33;13.33;;;;;19.77;74.86;101482.88;5035052;28;68525;-79
2023/05/28 03:10:03;;;;;;;;;14.00;12.00;;;;;19.76;75.16;101482.88;5035656;28;67997;-78
2023/05/28 03:12:28;;;;;;;;;13.67;12.33;;;;;19.76;74.89;101488.22;5036142;28;45384;-78
2023/05/28 03:14:55;;;;;;;;;20.67;15.00;;;;;19.73;75.27;101482.94;5035081;28;45351;-79
2023/05/28 03:17:20;;;;;;;;;14.67;12.67;;;;;19.72;75.56;101476.69;5036222;28;52178;-78
2023/05/28 03:19:45;;;;;;;;;19.00;12.33;;;;;19.70;76.08;101474.94;5023911;28;45443;-79
2023/05/28 03:22:11;;;;;;;;;15.00;12.00;;;;;19.69;76.62;101481.22;5035824;28;60354;-78
2023/05/28 03:24:38;;;;;;;;;18.00;13.33;;;;;19.66;77.04;101484.84;5035413;28;64096;-79
2023/05/28 03:27:05;;;;;;;;;14.67;12.33;;;;;19.63;76.78;101485.75;5035757;28;46572;-78
2023/05/28 03:29:30;;;;;;;;;13.00;11.00;;;;;19.57;77.86;101479.59;5035840;28;46238;-80
2023/05/28 03:31:55;;;;;;;;;15.33;11.00;;;;;19.56;78.04;101478.72;5036430;28;45180;-78
2023/05/28 03:34:21;;;;;;;;;15.00;11.67;;;;;19.53;78.09;101484.09;5033623;28;59497;-79
2023/05/28 03:36:46;;;;;;;;;20.33;14.33;;;;;19.49;78.91;101481.50;5035828;28;46590;-79
2023/05/28 03:39:12;;;;;;;;;14.67;11.33;;;;;19.47;78.64;101475.28;5035533;28;46597;-78
2023/05/28 03:41:37;;;;;;;;;15.67;14.00;;;;;19.44;79.10;101475.31;5034817;28;59220;-80
2023/05/28 03:44:04;;;;;;;;;13.67;11.67;;;;;19.39;79.34;101464.69;5036249;28;45497;-79
2023/05/28 03:46:29;;;;;;;;;18.67;13.67;;;;;19.35;79.68;101465.66;5035945;28;46672;-79
2023/05/28 03:48:55;;;;;;;;;14.00;11.33;;;;;19.32;79.96;101474.59;5038130;28;45408;-79
2023/05/28 03:51:21;;;;;;;;;12.00;12.00;;;;;19.28;80.53;101472.91;5039696;28;45457;-80
2023/05/28 03:53:46;;;;;;;;;15.67;14.00;;;;;19.26;81.00;101465.78;5028197;28;45431;-78
2023/05/28 03:56:12;;;;;;;;;20.67;14.67;;;;;19.21;81.63;101475.66;5027171;28;47431;-82
2023/05/28 03:58:38;;;;;;;;;16.00;13.00;;;;;19.19;81.75;101481.06;5036950;28;45443;-78
2023/05/28 04:01:03;;;;;;;;;21.67;13.33;;;;;19.16;82.68;101490.91;5037277;28;60320;-79
2023/05/28 04:03:28;;;;;;;;;13.00;11.00;;;;;19.13;82.61;101493.66;5039738;28;45296;-80
2023/05/28 04:05:54;;;;;;;;;17.00;15.33;;;;;19.09;82.75;101485.66;5038590;28;47551;-78
2023/05/28 04:08:19;;;;;;;;;17.00;10.33;;;;;19.07;83.20;101484.78;5038536;28;67036;-80
2023/05/28 04:10:45;;;;;;;;;18.33;13.00;;;;;19.04;83.47;101490.16;5037711;28;45433;-79
2023/05/28 04:13:10;;;;;;;;;14.33;12.67;;;;;19.05;84.34;101489.25;5020224;28;60928;-77
2023/05/28 04:15:35;;;;;;;;;15.00;11.33;;;;;19.02;83.89;101492.00;5038688;28;46445;-79
2023/05/28 04:18:01;;;;;;;;;18.00;14.33;;;;;19.01;83.94;101490.19;5031553;28;45687;-78
2023/05/28 04:20:26;;;;;;;;;16.00;13.00;;;;;19.01;84.02;101490.19;5039032;28;45692;-78
2023/05/28 04:22:51;;;;;;;;;15.67;11.00;;;;;19.01;84.42;101484.84;5038374;28;52335;-79
2023/05/28 04:25:18;;;;;;;;;20.00;13.67;;;;;19.02;84.75;101488.44;5038316;28;66917;-79
2023/05/28 04:27:44;;;;;;;;;18.67;15.33;;;;;19.00;85.18;101488.44;5038448;28;45380;-78
2023/05/28 04:30:11;;;;;;;;;13.67;12.33;;;;;19.02;85.58;101499.16;5038925;28;45211;-80
2023/05/28 04:32:39;;;;;;;;;13.00;12.67;;;;;19.02;85.71;101501.81;5039024;28;45352;-78
2023/05/28 04:35:10;;;;;;;;;16.67;12.67;;;;;19.00;86.16;101495.59;5034082;28;46804;-78
2023/05/28 04:37:39;;;;;;;;;20.33;13.67;;;;;19.00;85.79;101495.59;5036670;28;45371;-82
2023/05/28 04:40:06;;;;;;;;;15.00;13.67;;;;;18.99;86.18;101499.16;5038202;28;45371;-79
2023/05/28 04:42:31;;;;;;;;;16.67;12.33;;;;;19.00;86.48;101490.22;5037017;28;45614;-78
2023/05/28 04:44:58;;;;;;;;;17.67;14.67;;;;;19.00;86.39;101498.25;5033867;28;67602;-81
2023/05/28 04:47:23;;;;;;;;;19.67;12.67;;;;;19.02;86.74;101504.50;5038396;28;45534;-79
2023/05/28 04:49:49;;;;;;;;;17.00;10.00;;;;;19.02;87.08;101507.19;5038331;28;45366;-78
2023/05/28 04:52:14;;;;;;;;;13.67;12.00;;;;;19.03;86.99;101507.16;5031071;28;45257;-81
2023/05/28 04:54:40;;;;;;;;;19.00;15.00;;;;;19.02;87.67;101507.19;5027101;28;46619;-79
2023/05/28 04:57:05;;;;;;;;;13.67;12.00;;;;;19.03;87.56;101512.50;5035220;28;64384;-79
2023/05/28 04:59:31;;;;;;;;;15.00;12.00;;;;;19.03;87.59;101517.84;5036603;28;61883;-83
2023/05/28 05:01:56;;;;;;;;;19.33;15.33;;;;;19.03;87.93;101512.50;5036019;28;45467;-78
2023/05/28 05:04:22;;;;;;;;;17.00;13.00;;;;;19.04;87.70;101521.41;5036532;28;45391;-80
2023/05/28 05:06:47;;;;;;;;;15.33;15.00;;;;;19.02;87.33;101517.88;5037326;28;65989;-80
2023/05/28 05:09:12;;;;;;;;;17.33;13.00;;;;;19.04;87.80;101518.72;5015429;28;62153;-79
2023/05/28 05:11:37;;;;;;;;;17.67;15.00;;;;;19.03;87.85;101517.84;5019367;28;62469;-80
2023/05/28 05:14:03;;;;;;;;;18.33;13.00;;;;;19.04;88.40;101518.72;5037776;28;54353;-78
2023/05/28 05:16:29;;;;;;;;;14.33;12.67;;;;;19.04;88.35;101519.63;5038054;28;45246;-78
2023/05/28 05:18:54;;;;;;;;;18.33;15.00;;;;;19.04;88.26;101516.06;5038413;28;45190;-79
2023/05/28 05:21:20;;;;;;;;;14.67;13.33;;;;;19.06;88.77;101525.81;5028049;28;62702;-78
2023/05/28 05:23:45;;;;;;;;;20.67;16.67;;;;;19.06;88.91;101515.13;5037365;28;46333;-81
2023/05/28 05:26:12;;;;;;;;;16.00;12.67;;;;;19.07;89.32;101511.56;5033587;28;66339;-80
2023/05/28 05:28:38;;;;;;;;;21.67;14.67;;;;;19.09;88.55;101508.84;5163094;22;45554;-81
2023/05/28 05:31:03;;;;;;;;;18.33;13.33;;;;;19.10;88.10;101513.28;5058039;28;45386;-81
2023/05/28 05:33:28;;;;;;;;;19.00;13.67;;;;;19.11;88.94;101515.94;5056094;28;70578;-80
2023/05/28 05:35:54;;;;;;;;;16.33;14.33;;;;;19.15;88.17;101524.81;5048985;28;66899;-82
2023/05/28 05:38:19;;;;;;;;;18.33;12.33;;;;;19.16;88.13;101521.25;5056088;28;45352;-83
2023/05/28 05:40:44;;;;;;;;;15.67;15.67;;;;;19.19;88.26;101526.56;5057270;28;46892;-79
2023/05/28 05:43:09;;;;;;;;;18.00;15.00;;;;;19.18;87.83;101513.22;5053510;28;62497;-79
2023/05/28 05:45:35;;;;;;;;;17.00;17.00;;;;;19.20;88.18;101519.41;5057795;28;49369;-78
2023/05/28 05:48:00;;;;;;;;;13.33;12.00;;;;;19.20;87.81;101514.06;5052518;28;53087;-79
2023/05/28 05:50:26;;;;;;;;;15.00;13.00;;;;;19.23;87.59;101524.72;5056887;28;45543;-82
2023/05/28 05:52:51;;;;;;;;;12.67;11.00;;;;;19.23;87.51;101524.72;5038850;28;47914;-79
2023/05/28 05:55:16;;;;;;;;;17.67;14.00;;;;;19.23;88.14;101524.72;5046292;28;45233;-79
2023/05/28 05:57:42;;;;;;;;;16.33;15.00;;;;;19.23;87.64;101520.28;5053477;28;60240;-81
2023/05/28 06:00:10;;;;;;;;;16.00;10.67;;;;;19.23;88.16;101520.28;5057620;28;45131;-81
2023/05/28 06:02:37;;;;;;;;;15.00;14.33;;;;;19.25;87.55;101521.13;5057410;28;46960;-83
2023/05/28 06:05:03;;;;;;;;;18.00;14.67;;;;;19.27;87.94;101518.41;5057359;28;45468;-80
2023/05/28 06:07:29;;;;;;;;;13.00;11.33;;;;;19.27;87.64;101516.63;5053407;28;45454;-80
2023/05/28 06:09:55;;;;;;;;;17.00;14.67;;;;;19.28;87.11;101522.84;5056746;28;45539;-79
2023/05/28 06:12:20;;;;;;;;;15.67;11.00;;;;;19.31;87.19;101520.16;5056650;28;47051;-80
2023/05/28 06:14:47;;;;;;;;;16.67;16.67;;;;;19.32;87.31;101521.91;5056429;28;68014;-83
2023/05/28 06:17:12;;;;;;;;;13.33;13.33;;;;;19.34;87.13;101518.31;5055905;28;45409;-81
2023/05/28 06:19:38;;;;;;;;;18.00;13.00;;;;;19.37;86.61;101520.94;5056909;28;45372;-79
2023/05/28 06:22:04;;;;;;;;;11.33;11.33;;;;;19.42;86.02;101522.69;5057139;28;47623;-82
2023/05/28 06:24:29;;;;;;;;;16.33;11.00;;;;;19.43;85.91;101509.25;5057038;28;45236;-79
2023/05/28 06:26:55;;;;;;;;;14.67;13.33;;;;;19.48;85.83;101520.78;5056144;28;57875;-78
2023/05/28 06:29:20;;;;;;;;;20.33;13.00;;;;;19.51;85.23;101514.50;5056653;28;45446;-78
2023/05/28 06:31:46;;;;;;;;;16.00;12.33;;;;;19.53;84.77;101515.38;5056847;28;46264;-81
2023/05/28 06:34:11;;;;;;;;;19.67;14.33;;;;;19.53;84.37;101515.38;5056494;28;45407;-81
2023/05/28 06:36:37;;;;;;;;;13.33;13.33;;;;;19.51;84.40;101510.03;5056879;28;45897;-81
2023/05/28 06:39:04;;;;;;;;;14.67;12.67;;;;;19.53;84.33;101513.56;5055920;28;58681;-79
2023/05/28 06:41:29;;;;;;;;;15.00;12.67;;;;;19.55;83.99;101511.78;5055328;28;47436;-81
2023/05/28 06:43:55;;;;;;;;;17.33;14.33;;;;;19.56;84.48;101508.19;5053536;28;45284;-80
2023/05/28 06:46:21;;;;;;;;;14.33;12.00;;;;;19.60;84.50;101511.72;5054887;28;67010;-80
2023/05/28 06:48:46;;;;;;;;;18.33;16.33;;;;;19.65;84.15;101519.69;5049798;28;45551;-79
2023/05/28 06:51:12;;;;;;;;;20.67;13.67;;;;;19.69;83.70;101516.03;5056976;28;46631;-79
2023/05/28 06:53:38;;;;;;;;;16.33;15.00;;;;;19.70;84.00;101518.69;5055923;28;62441;-79
2023/05/28 06:56:05;;;;;;;;;14.00;11.33;;;;;19.73;83.24;101515.09;5053488;28;45572;-82
2023/05/28 06:58:30;;;;;;;;;13.00;11.33;;;;;19.77;83.46;101514.16;5054178;28;45570;-80
2023/05/28 07:00:56;;;;;;;;;15.67;11.33;;;;;19.82;83.74;101512.28;5038388;28;46404;-79
2023/05/28 07:03:21;;;;;;;;;20.67;15.00;;;;;19.86;84.77;101522.91;5047660;28;45904;-82
2023/05/28 07:05:47;;;;;;;;;13.33;12.00;;;;;19.91;84.60;101513.91;5051902;28;45269;-80
2023/05/28 07:08:13;;;;;;;;;12.67;12.00;;;;;19.96;84.80;101514.72;5055548;28;45324;-82
2023/05/28 07:10:38;;;;;;;;;15.00;12.67;;;;;20.01;83.42;101512.84;5046546;28;47466;-83
2023/05/28 07:13:03;;;;;;;;;22.00;11.33;;;;;20.02;83.50;101512.81;5037094;28;63681;-80
2023/05/28 07:15:29;;;;;;;;;8.00;8.00;;;;;20.08;83.39;101512.72;5056282;28;45392;-82
2023/05/28 07:17:55;;;;;;;;;17.00;11.33;;;;;20.13;83.29;101513.53;5053599;28;45683;-81
2023/05/28 07:20:20;;;;;;;;;9.67;9.67;;;;;20.17;82.80;101514.34;5064057;28;47213;-81
2023/05/28 07:22:45;;;;;;;;;11.33;11.33;;;;;20.22;82.46;101520.50;5035304;28;45492;-82
2023/05/28 07:25:11;;;;;;;;;15.67;11.33;;;;;20.25;82.50;101516.91;5052076;28;65273;-79
2023/05/28 07:27:36;;;;;;;;;14.33;10.33;;;;;20.26;81.40;101508.81;5046094;28;54085;-84
2023/05/28 07:30:02;;;;;;;;;10.00;10.00;;;;;20.29;82.30;101516.78;5042700;28;46655;-78
2023/05/28 07:32:27;;;;;;;;;21.67;14.67;;;;;20.31;81.94;101512.31;5045836;28;45269;-79
2023/05/28 07:34:52;;;;;;;;;16.33;10.67;;;;;20.35;82.23;101511.34;5053282;28;63469;-83
2023/05/28 07:37:18;;;;;;;;;18.67;12.00;;;;;20.40;81.52;101522.00;5044226;28;45601;-79
2023/05/28 07:39:43;;;;;;;;;12.67;9.33;;;;;20.42;81.74;101510.31;5053281;28;67091;-80
2023/05/28 07:42:08;;;;;;;;;8.00;6.67;;;;;20.47;81.92;101514.75;5052189;28;67956;-80
2023/05/28 07:44:34;;;;;;;;;9.33;7.00;;;;;20.50;81.72;101504.81;5051176;28;61496;-81
2023/05/28 07:46:59;;;;;;;;;13.00;9.33;;;;;20.57;81.17;101510.97;5050763;28;55364;-79
2023/05/28 07:49:25;;;;;;;;;10.33;8.67;;;;;20.61;81.13;101515.34;5045543;28;47809;-79
2023/05/28 07:51:50;;;;;;;;;10.33;8.33;;;;;20.68;81.10;101514.31;5043835;28;52226;-76
2023/05/28 07:54:15;;;;;;;;;13.33;9.33;;;;;20.75;82.03;101515.06;5045592;28;45560;-77
2023/05/28 07:56:41;;;;;;;;;9.67;8.00;;;;;20.78;81.68;101515.91;5037753;28;45491;-77
2023/05/28 07:59:07;;;;;;;;;12.00;9.33;;;;;20.81;81.72;101513.13;5042659;28;47390;-79
2023/05/28 08:01:33;;;;;;;;;15.00;10.00;;;;;20.83;80.55;101510.44;5040616;28;45236;-80
2023/05/28 08:03:59;;;;;;;;;11.67;10.00;;;;;20.83;80.29;101508.66;5042203;28;45554;-82
2023/05/28 08:06:24;;;;;;;;;9.33;7.33;;;;;20.81;79.21;101507.78;5047442;28;59453;-80
2023/05/28 08:08:49;;;;;;;;;12.00;9.33;;;;;20.83;79.25;101505.09;5039531;28;55299;-75
2023/05/28 08:11:15;;;;;;;;;10.00;10.00;;;;;20.85;80.39;101508.59;5052571;28;45434;-75
2023/05/28 08:13:41;;;;;;;;;13.33;9.00;;;;;20.90;80.85;101504.91;5050713;28;45429;-80
2023/05/28 08:16:06;;;;;;;;;10.00;9.00;;;;;20.96;81.79;101503.88;5032052;28;45360;-80
2023/05/28 08:18:32;;;;;;;;;13.00;9.67;;;;;20.98;80.33;101504.72;5031567;28;66377;-79
2023/05/28 08:20:57;;;;;;;;;11.33;10.00;;;;;21.03;81.45;101500.16;5044576;28;66010;-78
2023/05/28 08:23:22;;;;;;;;;12.67;10.33;;;;;21.04;79.75;101492.97;5048708;28;45863;-77
2023/05/28 08:25:48;;;;;;;;;14.00;7.67;;;;;21.09;79.94;101500.03;5052701;28;45328;-78
2023/05/28 08:28:16;;;;;;;;;9.00;7.00;;;;;21.14;79.59;101502.59;5039683;28;71649;-80
2023/05/28 08:30:41;;;;;;;;;14.00;10.00;;;;;21.19;80.96;101492.63;5038270;28;45584;-80
2023/05/28 08:33:07;;;;;;;;;9.00;9.00;;;;;21.25;80.63;101487.13;5045069;28;62062;-79
2023/05/28 08:35:32;;;;;;;;;26.33;13.33;;;;;21.31;79.99;101481.66;5049091;28;46151;-79
2023/05/28 08:37:58;;;;;;;;;10.00;8.00;;;;;21.33;79.08;101479.81;5049516;28;45457;-80
2023/05/28 08:40:23;;;;;;;;;12.33;10.00;;;;;21.39;79.14;101477.00;5052438;28;66741;-81
2023/05/28 08:42:49;;;;;;;;;10.67;8.00;;;;;21.44;79.07;101482.25;5033966;28;58686;-79
2023/05/28 08:45:14;;;;;;;;;17.00;9.67;;;;;21.49;79.02;101477.66;5053368;28;45423;-80
2023/05/28 08:47:40;;;;;;;;;11.00;8.00;;;;;21.57;79.02;101473.00;5053073;28;69751;-79
2023/05/28 08:50:06;;;;;;;;;11.67;9.00;;;;;21.61;78.91;101476.47;5049892;28;45799;-82
2023/05/28 08:52:32;;;;;;;;;11.00;9.00;;;;;21.66;78.79;101472.75;5033723;28;45584;-81
2023/05/28 08:54:59;;;;;;;;;8.00;7.00;;;;;21.71;79.95;101476.22;5055054;28;45380;-80
2023/05/28 08:57:25;;;;;;;;;8.67;7.00;;;;;21.78;79.94;101476.03;5051086;28;46594;-82
2023/05/28 08:59:52;;;;;;;;;9.33;8.00;;;;;21.81;77.27;101474.19;5048621;28;45763;-80
2023/05/28 09:02:20;;;;;;;;;7.33;6.33;;;;;21.81;77.84;101466.09;5047905;28;45528;-80
2023/05/28 09:04:46;;;;;;;;;11.00;7.67;;;;;21.86;77.73;101466.88;5044826;28;45406;-81
2023/05/28 09:07:12;;;;;;;;;9.67;8.00;;;;;21.90;77.29;101465.00;5032151;28;48267;-81
2023/05/28 09:09:37;;;;;;;;;8.33;5.67;;;;;21.95;77.37;101471.16;5052416;28;45583;-81
2023/05/28 09:12:05;;;;;;;;;8.00;8.00;;;;;21.97;77.05;101461.22;5031184;28;46048;-81
2023/05/28 09:14:31;;;;;;;;;8.00;8.00;;;;;22.03;77.18;101462.88;5035599;28;46288;-79
2023/05/28 09:16:56;;;;;;;;;13.00;9.00;;;;;22.06;77.36;101463.69;5035059;28;46031;-80
2023/05/28 09:19:21;;;;;;;;;8.00;8.00;;;;;22.13;78.22;101468.00;5046395;28;70180;-78
2023/05/28 09:21:57;;;;;;;;;6.33;6.33;;;;;22.15;77.83;101460.75;5049843;28;62320;-80
2023/05/28 09:24:25;;;;;;;;;5.00;5.00;;;;;22.23;76.55;101471.31;5049731;28;45754;-79
2023/05/28 09:26:54;;;;;;;;;15.00;8.33;;;;;22.25;75.73;101469.47;5030958;28;47229;-77
2023/05/28 09:29:20;;;;;;;;;12.00;9.00;;;;;22.31;76.91;101471.09;5053244;28;45513;-80
2023/05/28 09:31:54;;;;;;;;;7.67;7.67;;;;;22.37;76.96;101468.25;5034587;28;52889;-80
2023/05/28 09:34:20;;;;;;;;;10.67;8.00;;;;;22.40;77.01;101463.66;5052375;28;45891;-79
2023/05/28 09:36:45;;;;;;;;;15.00;10.33;;;;;22.45;77.05;101459.03;5053482;28;47577;-79
2023/05/28 09:39:11;;;;;;;;;11.67;8.00;;;;;22.49;77.31;101460.72;5043487;28;66363;-79
2023/05/28 09:41:43;;;;;;;;;9.67;8.33;;;;;22.56;76.35;101463.22;5048934;28;45739;-79
2023/05/28 09:44:10;;;;;;;;;9.00;8.00;;;;;22.62;76.20;101457.66;5040505;28;45510;-80
2023/05/28 09:46:36;;;;;;;;;10.33;9.67;;;;;22.67;76.95;101458.41;5048401;28;46819;-79
2023/05/28 09:49:02;;;;;;;;;11.00;8.00;;;;;22.70;76.71;101445.75;5051219;28;45498;-81
2023/05/28 09:51:30;;;;;;;;;8.67;7.00;;;;;22.80;76.83;101453.53;5031055;28;45538;-81
2023/05/28 09:54:00;;;;;;;;;7.67;7.67;;;;;22.83;76.18;101451.66;5050953;28;45732;-80
2023/05/28 09:56:31;;;;;;;;;7.33;7.33;;;;;22.92;75.60;101458.63;5047327;28;46967;-80
2023/05/28 09:58:58;;;;;;;;;11.67;7.67;;;;;22.99;75.50;101442.22;5051774;28;45544;-80
2023/05/28 10:01:25;;;;;;;;;12.00;7.67;;;;;23.08;75.26;101445.56;5053380;28;45504;-79
2023/05/28 10:04:00;;;;;;;;;9.33;7.00;;;;;23.14;75.51;101446.25;5034957;28;45540;-81
2023/05/28 10:06:25;;;;;;;;;9.00;8.33;;;;;23.22;74.97;101437.91;5030831;28;47768;-80
2023/05/28 10:08:51;;;;;;;;;12.00;8.00;;;;;23.28;74.97;101435.03;5033822;28;64144;-79
2023/05/28 10:11:34;;;;;;;;;8.33;7.33;;;;;23.35;74.56;101436.59;5050887;28;45859;-80
2023/05/28 10:13:59;;;;;;;;;7.67;7.67;;;;;23.42;73.82;101431.88;5052620;28;45493;-82
2023/05/28 10:16:25;;;;;;;;;9.00;7.00;;;;;23.47;73.44;101429.91;5037393;28;47499;-81
2023/05/28 10:18:51;;;;;;;;;9.00;8.00;;;;;23.52;73.13;101430.66;5052229;28;45576;-82
2023/05/28 10:21:19;;;;;;;;;7.33;7.33;;;;;23.60;73.66;101442.06;5051290;28;45618;-83
2023/05/28 10:23:45;;;;;;;;;9.00;6.00;;;;;23.68;73.36;101428.34;5031582;28;45925;-80
2023/05/28 10:26:11;;;;;;;;;10.33;10.00;;;;;23.76;73.07;101431.69;5049665;28;47279;-76
2023/05/28 10:28:36;;;;;;;;;10.00;7.67;;;;;23.82;71.74;101428.78;5050143;28;67994;-78
2023/05/28 10:31:06;;;;;;;;;10.33;6.67;;;;;23.91;70.29;101424.84;5050141;28;45882;-77
2023/05/28 10:33:37;;;;;;;;;7.00;7.00;;;;;23.98;68.94;101426.44;5052191;28;45545;-78
2023/05/28 10:36:02;;;;;;;;;7.67;7.67;;;;;24.04;68.62;101429.78;5049944;28;47346;-76
2023/05/28 10:38:28;;;;;;;;;10.67;9.00;;;;;24.13;69.17;101433.97;5048425;28;45502;-76
2023/05/28 10:41:01;;;;;;;;;10.33;5.67;;;;;24.20;67.81;101430.13;5045775;28;46852;-77
2023/05/28 10:43:38;;;;;;;;;13.67;11.00;;;;;24.27;67.26;101426.25;5046648;28;45580;-77
2023/05/28 10:46:11;;;;;;;;;13.33;8.33;;;;;24.33;67.20;101435.94;5047356;28;46987;-77
2023/05/28 10:49:12;;;;;;;;;18.33;12.00;;;;;24.37;65.90;101421.44;5047113;28;45610;-77
2023/05/28 10:52:00;;;;;;;;;8.00;8.00;;;;;24.45;66.47;101432.84;5011569;28;45488;-76
2023/05/28 10:54:45;;;;;;;;;5.00;5.00;;;;;24.53;65.64;101421.75;5048724;28;45764;-79
2023/05/28 10:57:33;;;;;;;;;9.67;8.00;;;;;24.61;65.78;101416.94;5042656;28;46901;-76
2023/05/28 11:00:10;;;;;;;;;10.33;10.00;;;;;24.70;65.82;101410.28;5034276;28;45406;-76
2023/05/28 11:02:36;;;;;;;;;10.33;9.67;;;;;24.78;65.63;101417.16;5048326;28;45569;-77
2023/05/28 11:05:03;;;;;;;;;8.33;6.67;;;;;24.87;66.52;101420.44;5049350;28;45426;-81
2023/05/28 11:07:33;;;;;;;;;9.67;7.00;;;;;24.96;66.16;101407.44;5052183;28;45511;-77
2023/05/28 11:09:59;;;;;;;;;8.00;7.00;;;;;25.03;65.46;101399.97;5048956;28;45485;-78
2023/05/28 11:12:30;;;;;;;;;8.67;6.00;;;;;25.10;65.27;101406.94;5046419;28;46021;-81